Nearby METAR Reports

 

EGKB - Biggin Hill, United Kingdom
Distance from station: S 5mi, 8km
Updated: 01/04/2015 18:20
Partly cloudy
Partly cloudy
 Wind from W
Wind: W 17 mph , 28 km/h
Temperature: 8°C
Wind Chill: 4°C
Dew Point: 0°C
Humidity: 57%
Barometer: 1022 hPa
Clouds: Partly cloudy
Visibility: 6 miles , 10 km
Cloud details: Partly cloudy 1067 m
2015/04/01 17:20 EGKB 011720Z 27015KT 9999 SCT035 08/00 Q1022
EGLC - London City Airp, United Kingdom
Distance from station: NNE 8mi, 13km
Updated: 01/04/2015 18:20
Partly cloudy
Partly cloudy
 Wind from W
Wind: W 20 mph , 31 km/h
Temperature: 10°C
Wind Chill: 7°C
Dew Point: 2°C
Humidity: 58%
Barometer: 1021 hPa
Clouds: Partly cloudy
Visibility: 6 miles , 10 km
Cloud details: Partly cloudy 1067 m
2015/04/01 17:20 EGLC 011720Z 27017KT 9999 SCT035 10/02 Q1021
 
EGKK - London/Gatwick A, United Kingdom
Distance from station: SSW 19mi, 31km
Updated: 01/04/2015 18:20
Few Clouds
Few Clouds
 Wind from W
Wind: W 18 mph , 30 km/h
Temperature: 9°C
Wind Chill: 5°C
Dew Point: 2°C
Humidity: 62%
Barometer: 1023 hPa
Clouds: Few Clouds
Visibility: 6 miles , 10 km
Cloud details: Few Clouds 1036 m
2015/04/01 17:20 EGKK 011720Z 26016KT 9999 FEW034 09/02 Q1023
EGLL - London/Heathrow, United Kingdom
Distance from station: WNW 21mi, 33km
Updated: 01/04/2015 18:20
Few Clouds
Few Clouds
 Wind from W
Wind: W 17 mph , 28 km/h
Temperature: 9°C
Wind Chill: 6°C
Dew Point: 3°C
Humidity: 66%
Barometer: 1022 hPa
Clouds: Few Clouds
Visibility: 6 miles , 10 km
Cloud details: Few Clouds 1036 m
2015/04/01 17:20 EGLL 011720Z 26015KT 9999 FEW034 09/03 Q1022 NOSIG